Time;durP1;ratioP1;P1;durP2;ratioP2;P2;SDS_P1;SDS_P2;PMS_P1;PMS_P2;Temp;Humidity;BMP_temperature;BMP_pressure;BME280_temperature;BME280_humidity;BME280_pressure;Samples;Min_cycle;Max_cycle;Signal;HPM_P1;HPM_P2
2022/08/10 00:01:35;;;;;;;5.47;2.05;;;;;;;18.53;100.00;102549.44;5207227;28;20124;-74
2022/08/10 00:04:06;;;;;;;4.53;1.80;;;;;;;18.51;100.00;102550.63;5196965;28;20029;-74
2022/08/10 00:06:36;;;;;;;3.45;1.85;;;;;;;18.48;100.00;102546.41;5206063;28;20032;-74
2022/08/10 00:09:07;;;;;;;3.47;2.08;;;;;;;18.46;100.00;102548.44;5206801;28;20108;-73
2022/08/10 00:11:37;;;;;;;2.83;1.90;;;;;;;18.44;100.00;102553.22;5206916;28;20025;-73
2022/08/10 00:14:08;;;;;;;5.32;2.05;;;;;;;18.41;100.00;102550.84;5206434;28;20027;-75
2022/08/10 00:16:38;;;;;;;8.68;2.20;;;;;;;18.38;100.00;102549.34;5201799;28;20017;-74
2022/08/10 00:19:09;;;;;;;5.22;2.47;;;;;;;18.33;100.00;102549.00;5206487;28;20044;-74
2022/08/10 00:21:39;;;;;;;6.75;1.83;;;;;;;18.30;100.00;102545.78;5206869;28;20025;-74
2022/08/10 00:24:10;;;;;;;3.60;2.00;;;;;;;18.25;100.00;102546.31;5206056;28;20079;-74
2022/08/10 00:26:40;;;;;;;6.90;2.40;;;;;;;18.22;100.00;102540.38;5206677;28;20052;-73
2022/08/10 00:29:11;;;;;;;4.00;2.22;;;;;;;18.19;100.00;102536.16;5206553;28;20028;-73
2022/08/10 00:31:41;;;;;;;4.47;2.40;;;;;;;18.14;100.00;102535.84;5206143;28;20098;-73
2022/08/10 00:34:12;;;;;;;5.05;2.45;;;;;;;18.10;100.00;102535.34;5205691;28;20022;-74
2022/08/10 00:36:42;;;;;;;3.20;1.92;;;;;;;18.08;100.00;102539.28;5205326;28;20124;-74
2022/08/10 00:39:13;;;;;;;9.15;2.53;;;;;;;18.06;100.00;102535.84;5206362;28;20043;-73
2022/08/10 00:41:43;;;;;;;3.10;1.80;;;;;;;18.03;100.00;102528.94;5206320;28;20021;-74
2022/08/10 00:44:14;;;;;;;2.80;2.08;;;;;;;18.02;100.00;102539.94;5205545;28;20025;-74
2022/08/10 00:46:44;;;;;;;3.70;2.13;;;;;;;17.99;100.00;102535.72;5206328;28;20433;-74
2022/08/10 00:49:15;;;;;;;3.15;2.22;;;;;;;17.98;100.00;102533.19;5192196;28;20025;-74
2022/08/10 00:51:45;;;;;;;3.72;2.50;;;;;;;17.97;100.00;102529.63;5206050;28;20029;-75
2022/08/10 00:54:16;;;;;;;6.88;2.47;;;;;;;17.96;100.00;102533.34;5205281;28;20463;-74
2022/08/10 00:56:46;;;;;;;4.97;2.20;;;;;;;17.94;100.00;102532.69;5206527;28;20536;-73
2022/08/10 00:59:17;;;;;;;5.20;2.50;;;;;;;17.91;100.00;102529.47;5205873;28;20029;-74
2022/08/10 01:01:48;;;;;;;2.38;2.10;;;;;;;17.89;100.00;102526.09;5205810;28;20390;-73
2022/08/10 01:04:18;;;;;;;3.67;1.77;;;;;;;17.88;100.00;102530.66;5196570;28;20103;-73
2022/08/10 01:07:29;;;;;;;5.13;2.13;;;;;;;17.84;100.00;102521.16;5205496;28;20059;-73
2022/08/10 01:10:18;;;;;;;3.45;2.15;;;;;;;17.81;100.00;102530.50;5205734;28;20100;-74
2022/08/10 01:12:59;;;;;;;3.15;1.83;;;;;;;17.79;100.00;102512.69;5206210;28;20025;-73
2022/08/10 01:15:36;;;;;;;5.35;2.50;;;;;;;17.75;100.00;102520.34;5200802;28;20429;-73
2022/08/10 01:18:16;;;;;;;2.53;2.33;;;;;;;17.74;100.00;102513.22;5205711;28;20037;-73
2022/08/10 01:21:14;;;;;;;5.50;2.60;;;;;;;17.72;100.00;102507.09;5205706;28;20018;-74
2022/08/10 01:23:53;;;;;;;3.75;2.22;;;;;;;17.68;100.00;102505.75;5205345;28;20453;-73
2022/08/10 01:26:58;;;;;;;6.55;2.38;;;;;;;17.65;100.00;102525.06;5204909;28;20021;-73
2022/08/10 01:30:03;;;;;;;8.90;2.72;;;;;;;17.64;100.00;102507.09;5205890;28;20169;-75
2022/08/10 01:32:50;;;;;;;4.15;2.10;;;;;;;17.60;100.00;102513.88;5205265;28;20105;-75
2022/08/10 01:35:39;;;;;;;5.43;2.30;;;;;;;17.58;100.00;102510.50;5205005;28;20083;-74
2022/08/10 01:38:17;;;;;;;4.80;2.70;;;;;;;17.56;100.00;102512.53;5204864;28;20045;-75
2022/08/10 01:40:56;;;;;;;5.10;2.58;;;;;;;17.52;100.00;102509.34;5205312;28;20497;-74
2022/08/10 01:43:29;;;;;;;7.57;2.65;;;;;;;17.50;100.00;102513.22;5205703;28;20021;-74
2022/08/10 01:46:03;;;;;;;4.70;2.50;;;;;;;17.49;100.00;102506.13;5204656;28;20029;-71
2022/08/10 01:48:45;;;;;;;6.43;2.33;;;;;;;17.46;100.00;102507.28;5197409;28;20022;-74
2022/08/10 01:51:25;;;;;;;7.25;2.47;;;;;;;17.46;100.00;102507.28;5194360;28;20146;-74
2022/08/10 01:54:00;;;;;;;5.07;2.80;;;;;;;17.45;100.00;102502.03;5205092;28;20029;-74
2022/08/10 01:56:34;;;;;;;4.40;2.85;;;;;;;17.44;100.00;102505.78;5204801;28;20155;-74
2022/08/10 01:59:12;;;;;;;4.18;2.45;;;;;;;17.42;100.00;102510.50;5204738;28;20356;-73
2022/08/10 02:01:47;;;;;;;8.23;2.80;;;;;;;17.38;100.00;102518.16;5203894;28;20025;-74
2022/08/10 02:04:19;;;;;;;7.00;2.72;;;;;;;17.36;100.00;102503.91;5195134;28;20025;-74
2022/08/10 02:06:52;;;;;;;5.63;2.95;;;;;;;17.33;100.00;102507.81;5204807;28;20435;-74
2022/08/10 02:09:27;;;;;;;4.65;2.63;;;;;;;17.30;100.00;102505.44;5204998;28;20029;-74
2022/08/10 02:12:04;;;;;;;8.45;3.00;;;;;;;17.26;100.00;102506.78;5204902;28;20399;-73
2022/08/10 02:14:52;;;;;;;4.70;3.10;;;;;;;17.21;100.00;102503.75;5193194;28;20443;-74
2022/08/10 02:17:26;;;;;;;3.90;2.97;;;;;;;17.17;100.00;102501.53;5191818;28;20067;-74
2022/08/10 02:20:01;;;;;;;7.75;3.08;;;;;;;17.12;100.00;102503.91;5204305;28;20565;-74
2022/08/10 02:22:32;;;;;;;8.97;3.37;;;;;;;17.07;100.00;102502.56;5204770;28;20510;-74
2022/08/10 02:25:06;;;;;;;4.68;3.05;;;;;;;17.04;100.00;102502.91;5203906;28;20050;-74
2022/08/10 02:27:37;;;;;;;6.38;3.20;;;;;;;17.02;100.00;102509.53;5204479;28;20029;-74
2022/08/10 02:30:09;;;;;;;3.95;2.60;;;;;;;16.99;100.00;102504.44;5203936;28;20017;-74
2022/08/10 02:32:41;;;;;;;5.22;3.05;;;;;;;16.97;100.00;102520.03;5204543;28;20032;-74
2022/08/10 02:35:13;;;;;;;6.70;3.45;;;;;;;16.94;100.00;102513.06;5203929;28;20479;-75
2022/08/10 02:37:47;;;;;;;5.47;3.10;;;;;;;16.91;100.00;102516.09;5204380;28;20024;-75
2022/08/10 02:40:18;;;;;;;6.55;3.42;;;;;;;16.89;100.00;102506.47;5204269;28;20025;-75
2022/08/10 02:43:26;;;;;;;4.55;2.83;;;;;;;16.85;100.00;102514.06;5204080;28;20029;-75
2022/08/10 02:46:04;;;;;;;6.93;3.35;;;;;;;16.81;100.00;102508.13;5203552;28;20045;-75
2022/08/10 02:48:39;;;;;;;5.45;3.25;;;;;;;16.78;100.00;102507.63;5204097;28;20025;-73
2022/08/10 02:51:26;;;;;;;;;;;;;;;16.73;100.00;102505.41;5200936;28;20083;-72
2022/08/10 02:54:01;;;;;;;;;;;;;;;16.69;100.00;102497.75;5204326;28;19919;-72
2022/08/10 02:56:38;;;;;;;11.05;3.30;;;;;;;16.65;100.00;102501.81;5203493;28;20000;-73
2022/08/10 02:59:14;;;;;;;8.55;3.63;;;;;;;16.62;100.00;102500.28;5203494;28;20017;-72
2022/08/10 03:01:48;;;;;;;4.07;2.67;;;;;;;16.61;100.00;102495.00;5203513;28;20029;-72
2022/08/10 03:04:22;;;;;;;6.25;3.53;;;;;;;16.58;100.00;102497.06;5193234;28;20026;-72
2022/08/10 03:06:59;;;;;;;6.22;3.33;;;;;;;16.56;100.00;102503.63;5203583;28;20029;-73
2022/08/10 03:09:32;;;;;;;8.38;3.80;;;;;;;16.54;100.00;102505.66;5203667;28;20017;-72
2022/08/10 03:12:05;;;;;;;8.63;3.75;;;;;;;16.52;100.00;102496.88;5199648;28;20164;-72
2022/08/10 03:14:37;;;;;;;10.85;4.10;;;;;;;16.52;100.00;102503.13;5190538;28;20060;-72
2022/08/10 03:17:10;;;;;;;6.85;3.58;;;;;;;16.51;100.00;102497.88;5201839;28;20032;-72
2022/08/10 03:19:42;;;;;;;5.47;3.10;;;;;;;16.49;100.00;102498.03;5203645;28;20380;-73
2022/08/10 03:22:14;;;;;;;7.80;4.00;;;;;;;16.48;100.00;102495.50;5203202;28;20023;-72
2022/08/10 03:24:45;;;;;;;9.73;3.78;;;;;;;16.47;100.00;102496.53;5202973;28;20030;-72
2022/08/10 03:27:16;;;;;;;6.13;3.50;;;;;;;16.45;100.00;102499.38;5203408;28;20033;-72
2022/08/10 03:29:48;;;;;;;12.95;4.22;;;;;;;16.44;100.00;102496.84;5203204;28;20029;-72
2022/08/10 03:32:22;;;;;;;4.45;3.60;;;;;;;16.41;100.00;102503.41;5203451;28;20383;-72
2022/08/10 03:34:53;;;;;;;7.65;3.55;;;;;;;16.40;100.00;102498.19;5202136;28;20029;-72
2022/08/10 03:37:23;;;;;;;7.55;3.70;;;;;;;16.38;100.00;102497.50;5203421;28;20018;-72
2022/08/10 03:39:54;;;;;;;10.07;4.15;;;;;;;16.37;100.00;102501.22;5203372;28;20071;-72
2022/08/10 03:42:27;;;;;;;8.40;3.83;;;;;;;16.36;100.00;102502.22;5203462;28;20021;-72
2022/08/10 03:44:58;;;;;;;9.02;3.75;;;;;;;16.35;100.00;102498.66;5202720;28;20372;-73
2022/08/10 03:47:30;;;;;;;8.45;3.97;;;;;;;16.35;100.00;102497.81;5207788;28;20542;-73
2022/08/10 03:50:02;;;;;;;6.55;3.95;;;;;;;16.34;100.00;102498.84;5203572;28;20033;-72
2022/08/10 03:52:33;;;;;;;7.90;4.03;;;;;;;16.34;100.00;102498.84;5202244;28;20028;-72
2022/08/10 03:55:04;;;;;;;10.95;4.32;;;;;;;16.30;100.00;102501.03;5202610;28;20029;-69
2022/08/10 03:57:35;;;;;;;8.98;4.03;;;;;;;16.28;100.00;102501.19;5203259;28;20025;-71
2022/08/10 04:00:07;;;;;;;12.43;4.10;;;;;;;16.24;100.00;102497.09;5202741;28;20117;-71
2022/08/10 04:02:40;;;;;;;7.78;4.32;;;;;;;16.21;100.00;102504.69;5200030;28;20080;-72
2022/08/10 04:05:13;;;;;;;11.15;4.20;;;;;;;16.15;100.00;102495.38;5196136;28;20048;-72
2022/08/10 04:07:44;;;;;;;11.18;4.30;;;;;;;16.09;100.00;102497.91;5203380;28;20036;-72
2022/08/10 04:10:15;;;;;;;11.80;4.30;;;;;;;16.04;100.00;102496.53;5202401;28;20029;-71
2022/08/10 04:12:46;;;;;;;8.05;4.18;;;;;;;16.02;100.00;102503.13;5203198;28;20038;-72
2022/08/10 04:15:16;;;;;;;11.93;4.70;;;;;;;15.99;100.00;102495.31;5197720;28;20025;-72
2022/08/10 04:17:47;;;;;;;11.43;5.07;;;;;;;15.95;100.00;102493.94;5203054;28;20667;-72
2022/08/10 04:20:24;;;;;;;9.98;4.60;;;;;;;15.91;100.00;102497.97;5189768;28;20453;-72
2022/08/10 04:22:56;;;;;;;13.95;5.10;;;;;;;15.88;100.00;102501.84;5202632;28;20048;-72
2022/08/10 04:25:26;;;;;;;22.50;5.07;;;;;;;15.87;100.00;102508.28;5204417;28;20041;-72
2022/08/10 04:27:57;;;;;;;15.15;4.57;;;;;;;15.88;100.00;102511.84;5206493;28;20022;-72
2022/08/10 04:30:30;;;;;;;14.23;5.22;;;;;;;15.88;100.00;102506.44;5206520;28;20480;-72
2022/08/10 04:33:02;;;;;;;8.00;4.63;;;;;;;15.87;100.00;102504.75;5206321;28;20021;-72
2022/08/10 04:35:34;;;;;;;11.48;5.38;;;;;;;15.88;100.00;102509.97;5206219;28;20044;-72
2022/08/10 04:38:05;;;;;;;13.70;4.38;;;;;;;15.88;100.00;102511.84;5206667;28;20027;-72
2022/08/10 04:40:36;;;;;;;12.35;5.20;;;;;;;15.85;100.00;102502.16;5206764;28;20501;-72
2022/08/10 04:43:07;;;;;;;16.77;4.53;;;;;;;15.83;100.00;102509.63;5205331;28;20364;-73
2022/08/10 04:45:40;;;;;;;11.57;4.70;;;;;;;15.84;100.00;102502.34;5205508;28;20033;-72
2022/08/10 04:48:11;;;;;;;11.73;4.72;;;;;;;15.86;100.00;102505.72;5202316;28;20022;-72
2022/08/10 04:50:41;;;;;;;14.13;5.60;;;;;;;15.86;100.00;102500.31;5198869;28;20042;-72
2022/08/10 04:53:12;;;;;;;12.10;4.85;;;;;;;15.88;100.00;102509.97;5206260;28;20037;-72
2022/08/10 04:55:42;;;;;;;11.40;5.30;;;;;;;15.90;100.00;102497.13;5205835;28;20364;-73
2022/08/10 04:58:13;;;;;;;16.02;5.60;;;;;;;15.93;100.00;102502.22;5205672;28;20028;-72
2022/08/10 05:00:43;;;;;;;9.40;5.53;;;;;;;15.96;100.00;102509.16;5205974;28;20537;-72
2022/08/10 05:03:14;;;;;;;9.02;5.13;;;;;;;15.98;100.00;102507.16;5198595;28;20480;-72
2022/08/10 05:05:44;;;;;;;10.68;4.75;;;;;;;16.00;100.00;102503.25;5223102;28;20112;-72
2022/08/10 05:08:15;;;;;;;9.55;5.07;;;;;;;16.03;100.00;102502.94;5206850;28;20379;-72
2022/08/10 05:10:46;;;;;;;9.07;5.20;;;;;;;16.05;100.00;102500.91;5205920;28;20076;-72
2022/08/10 05:13:16;;;;;;;10.98;5.15;;;;;;;16.09;100.00;102504.16;5206104;28;20021;-72
2022/08/10 05:15:49;;;;;;;10.73;5.22;;;;;;;16.15;100.00;102506.22;5200610;28;20467;-72
2022/08/10 05:18:19;;;;;;;8.38;4.65;;;;;;;16.20;100.00;102508.44;5205653;28;20025;-73
2022/08/10 05:20:49;;;;;;;12.23;5.05;;;;;;;16.24;100.00;102505.22;5205834;28;20060;-72
2022/08/10 05:23:20;;;;;;;9.02;4.85;;;;;;;16.29;100.00;102508.31;5205405;28;20026;-73
2022/08/10 05:25:50;;;;;;;14.27;5.40;;;;;;;16.35;100.00;102503.25;5205250;28;20167;-72
2022/08/10 05:28:21;;;;;;;18.15;5.20;;;;;;;16.38;100.00;102505.63;5205303;28;20432;-72
2022/08/10 05:30:51;;;;;;;10.60;5.50;;;;;;;16.42;100.00;102507.00;5206000;28;20072;-72
2022/08/10 05:33:22;;;;;;;11.25;5.55;;;;;;;16.45;100.00;102512.06;5205348;28;20052;-72
2022/08/10 05:35:52;;;;;;;13.55;5.30;;;;;;;16.47;100.00;102510.91;5204484;28;20493;-72
2022/08/10 05:38:25;;;;;;;7.20;5.15;;;;;;;16.52;100.00;102516.69;5205363;28;20022;-72
2022/08/10 05:40:56;;;;;;;10.02;5.47;;;;;;;16.58;100.00;102517.88;5205374;28;20391;-72
2022/08/10 05:43:27;;;;;;;10.88;5.97;;;;;;;16.66;100.00;102522.47;5205398;28;20079;-72
2022/08/10 05:45:57;;;;;;;10.88;5.45;;;;;;;16.76;100.00;102517.78;5204505;28;20029;-72
2022/08/10 05:48:28;;;;;;;9.95;6.40;;;;;;;16.84;100.00;102520.50;5204972;28;20068;-73
2022/08/10 05:50:58;;;;;;;10.23;5.72;;;;;;;16.93;100.00;102522.22;5202085;28;20033;-73
2022/08/10 05:53:32;;;;;;;10.07;5.53;;;;;;;17.06;100.00;102521.72;5205163;28;20450;-72
2022/08/10 05:56:04;;;;;;;12.13;5.65;;;;;;;17.20;100.00;102512.06;5198643;28;20049;-72
2022/08/10 05:58:35;;;;;;;9.55;5.65;;;;;;;17.43;100.00;102518.50;5196978;28;20360;-72
2022/08/10 06:01:12;;;;;;;9.80;5.35;;;;;;;17.90;100.00;102514.19;5191561;28;20025;-73
2022/08/10 06:03:48;;;;;;;10.52;5.22;;;;;;;18.36;100.00;102517.91;5204791;28;20029;-73
2022/08/10 06:06:20;;;;;;;11.88;5.30;;;;;;;18.98;100.00;102523.38;5203479;28;20044;-73
2022/08/10 06:08:52;;;;;;;10.40;4.55;;;;;;;19.67;100.00;102520.56;5204569;28;20029;-73
2022/08/10 06:11:24;;;;;;;11.25;5.38;;;;;;;20.38;100.00;102526.34;5205499;28;20502;-73
2022/08/10 06:16:46;;;;;;;10.05;4.97;;;;;;;21.27;100.00;102529.66;5200317;28;20017;-73
2022/08/10 06:19:18;;;;;;;10.00;4.97;;;;;;;21.48;100.00;102526.09;5204434;28;20111;-73
2022/08/10 06:21:48;;;;;;;9.30;4.65;;;;;;;21.70;100.00;102521.44;5204438;28;20241;-73
2022/08/10 06:24:22;;;;;;;10.40;5.32;;;;;;;21.66;100.00;102529.16;5203983;28;20025;-73
2022/08/10 06:26:52;;;;;;;15.27;5.05;;;;;;;21.90;100.00;102532.50;5204278;28;20444;-72
2022/08/10 06:29:24;;;;;;;10.93;5.32;;;;;;;22.41;100.00;102530.25;5204322;28;20022;-73
2022/08/10 06:31:55;;;;;;;8.98;5.60;;;;;;;22.62;100.00;102529.28;5204055;28;20446;-73
2022/08/10 06:34:30;;;;;;;10.95;5.15;;;;;;;22.98;100.00;102528.13;5203375;28;20032;-71
2022/08/10 06:37:03;;;;;;;10.10;4.80;;;;;;;23.24;100.00;102521.81;5204266;28;20021;-70
2022/08/10 06:39:34;;;;;;;9.35;5.07;;;;;;;23.05;100.00;102522.69;5204273;28;20100;-71
2022/08/10 06:42:13;;;;;;;10.68;4.82;;;;;;;22.77;100.00;102534.56;5204244;28;20036;-71
2022/08/10 06:45:01;;;;;;;15.35;5.70;;;;;;;22.59;100.00;102526.09;5203537;28;20020;-70
2022/08/10 06:47:52;;;;;;;9.43;5.65;;;;;;;22.30;100.00;102525.38;5203656;28;20025;-71
2022/08/10 06:50:30;;;;;;;8.65;5.35;;;;;;;22.64;100.00;102523.59;5204046;28;20375;-73
2022/08/10 06:53:02;;;;;;;11.35;5.32;;;;;;;23.07;100.00;102526.03;5203802;28;20037;-73
2022/08/10 06:55:34;;;;;;;9.20;5.72;;;;;;;23.51;100.00;102529.00;5203640;28;20623;-73
2022/08/10 06:58:07;;;;;;;13.63;5.05;;;;;;;24.13;100.00;102528.69;5203855;28;20098;-73
2022/08/10 07:00:41;;;;;;;10.23;4.85;;;;;;;24.79;100.00;102537.47;5203651;28;20049;-73
2022/08/10 07:03:16;;;;;;;12.70;5.32;;;;;;;25.27;100.00;102536.13;5196221;28;20030;-73
2022/08/10 07:05:50;;;;;;;9.18;5.22;;;;;;;25.58;100.00;102549.81;5202393;28;20435;-73
2022/08/10 07:08:22;;;;;;;13.05;4.45;;;;;;;25.82;100.00;102537.13;5203730;28;20034;-73
2022/08/10 07:10:54;;;;;;;9.32;5.28;;;;;;;25.92;100.00;102542.09;5203724;28;20056;-73
2022/08/10 07:13:27;;;;;;;8.90;4.75;;;;;;;26.12;100.00;102547.38;5203578;28;20025;-73
2022/08/10 07:15:59;;;;;;;12.10;4.38;;;;;;;26.26;100.00;102542.59;5198792;28;20415;-72
2022/08/10 07:18:30;;;;;;;10.50;5.43;;;;;;;26.43;100.00;102540.06;5203668;28;20022;-72
2022/08/10 07:21:02;;;;;;;8.60;4.55;;;;;;;26.54;100.00;102548.38;5204032;28;20455;-72
2022/08/10 07:23:34;;;;;;;12.55;5.97;;;;;;;26.83;96.93;102540.34;5203580;28;20025;-71
2022/08/10 07:26:08;;;;;;;7.72;4.43;;;;;;;27.28;94.90;102549.00;5202668;28;20087;-73
2022/08/10 07:28:40;;;;;;;6.80;4.63;;;;;;;27.61;90.41;102545.69;5203544;28;20029;-74
2022/08/10 07:31:15;;;;;;;11.35;4.80;;;;;;;27.63;89.56;102553.72;5202255;28;20480;-74
2022/08/10 07:33:48;;;;;;;11.52;5.70;;;;;;;27.82;89.62;102554.47;5203223;28;20095;-73
2022/08/10 07:36:21;;;;;;;12.45;5.57;;;;;;;27.86;88.78;102547.38;5202697;28;20033;-73
2022/08/10 07:38:54;;;;;;;9.38;4.75;;;;;;;27.72;87.86;102545.97;5203455;28;20022;-73
2022/08/10 07:41:29;;;;;;;9.90;4.85;;;;;;;28.01;86.81;102546.88;5203429;28;20523;-73
2022/08/10 07:44:03;;;;;;;;;;;;;;;28.25;85.36;102553.19;5203672;28;20032;-74
2022/08/10 07:46:35;;;;;;;12.35;5.30;;;;;;;28.29;83.85;102557.13;5202938;28;20335;-74
2022/08/10 07:49:13;;;;;;;12.13;5.45;;;;;;;28.31;79.55;102549.44;5190180;28;20089;-73
2022/08/10 07:51:44;;;;;;;11.95;5.10;;;;;;;28.14;82.02;102543.84;5203338;28;20076;-74
2022/08/10 07:54:16;;;;;;;9.60;5.00;;;;;;;27.98;81.51;102539.94;5202646;28;20368;-74
2022/08/10 07:56:51;;;;;;;9.65;4.68;;;;;;;28.25;82.09;102539.38;5203021;28;20025;-73
2022/08/10 07:59:24;;;;;;;;;;;;;;;27.91;80.62;102543.88;5203369;28;20029;-74
2022/08/10 08:01:56;;;;;;;8.63;4.80;;;;;;;27.99;80.52;102541.59;5207295;28;19955;-74
2022/08/10 08:04:28;;;;;;;10.38;5.32;;;;;;;28.12;84.37;102541.34;5206603;28;20082;-74
2022/08/10 08:07:03;;;;;;;7.82;4.72;;;;;;;28.47;82.42;102536.84;5207066;28;20276;-74
2022/08/10 08:09:36;;;;;;;9.90;4.95;;;;;;;28.35;80.03;102542.38;5197119;28;20061;-73
2022/08/10 08:12:09;;;;;;;13.25;4.55;;;;;;;28.65;83.71;102545.75;5204123;28;20033;-74
2022/08/10 08:14:42;;;;;;;9.43;5.43;;;;;;;28.74;79.19;102545.38;5203062;28;20026;-74
2022/08/10 08:17:15;;;;;;;9.15;5.10;;;;;;;28.39;78.72;102538.91;5206165;28;20052;-73
2022/08/10 08:19:49;;;;;;;8.00;4.78;;;;;;;28.45;78.32;102539.84;5206902;28;20481;-73
2022/08/10 08:22:20;;;;;;;6.90;4.20;;;;;;;28.54;80.88;102537.53;5207054;28;20504;-73
2022/08/10 08:24:55;;;;;;;10.88;4.72;;;;;;;28.74;79.45;102537.91;5206351;28;20430;-74
2022/08/10 08:27:28;;;;;;;10.80;5.30;;;;;;;28.80;76.83;102544.38;5206959;28;20055;-73
2022/08/10 08:29:59;;;;;;;11.40;4.82;;;;;;;28.86;79.04;102538.69;5206574;28;20032;-74
2022/08/10 08:32:34;;;;;;;12.00;5.30;;;;;;;29.17;73.51;102539.28;5207001;28;20025;-74
2022/08/10 08:35:07;;;;;;;7.50;4.20;;;;;;;29.34;75.03;102539.28;5205639;28;20128;-74
2022/08/10 08:37:40;;;;;;;13.25;4.63;;;;;;;29.61;72.97;102536.69;5206560;28;20029;-74
2022/08/10 08:40:15;;;;;;;9.88;4.47;;;;;;;29.90;72.33;102540.97;5206857;28;20383;-74
2022/08/10 08:43:22;;;;;;;9.63;4.88;;;;;;;30.08;71.63;102536.25;5206650;28;20034;-73
2022/08/10 08:46:32;;;;;;;9.32;5.05;;;;;;;30.33;69.80;102539.38;5205799;28;20029;-74
2022/08/10 08:49:04;;;;;;;7.65;4.40;;;;;;;30.59;69.21;102528.59;5198556;28;20032;-74
2022/08/10 08:52:03;;;;;;;10.95;4.72;;;;;;;30.78;66.56;102531.88;5203380;28;20083;-74
2022/08/10 08:55:11;;;;;;;6.63;4.10;;;;;;;30.76;66.24;102529.34;5205574;28;20060;-74
2022/08/10 08:58:00;;;;;;;13.55;5.28;;;;;;;30.67;66.07;102526.19;5205659;28;20153;-74
2022/08/10 09:00:44;;;;;;;7.43;4.93;;;;;;;30.88;64.73;102530.03;5206013;28;20032;-74
2022/08/10 09:03:44;;;;;;;11.77;5.13;;;;;;;30.84;64.09;102528.88;5198318;28;20026;-74
2022/08/10 09:06:51;;;;;;;7.00;3.78;;;;;;;31.07;63.22;102518.53;5194694;28;20546;-73
2022/08/10 09:09:41;;;;;;;4.85;4.20;;;;;;;31.31;63.72;102522.66;5194283;28;20087;-74
2022/08/10 09:12:46;;;;;;;10.70;4.38;;;;;;;31.09;59.45;102527.44;5205796;28;20534;-74
2022/08/10 09:15:27;;;;;;;12.50;4.80;;;;;;;31.14;60.26;102517.22;5200668;28;20397;-73
2022/08/10 09:18:18;;;;;;;13.82;4.00;;;;;;;31.26;59.11;102519.84;5206233;28;20049;-75
2022/08/10 09:20:57;;;;;;;15.75;4.10;;;;;;;31.58;59.75;102516.16;5194372;28;20033;-74
2022/08/10 09:23:38;;;;;;;10.32;3.97;;;;;;;31.56;58.78;102523.94;5205587;28;20395;-74
2022/08/10 09:26:40;;;;;;;8.27;3.78;;;;;;;31.54;58.90;102512.28;5205156;28;20030;-74
2022/08/10 09:29:16;;;;;;;8.20;4.28;;;;;;;31.72;58.96;102509.88;5178928;28;20029;-74
2022/08/10 09:31:54;;;;;;;12.77;4.05;;;;;;;31.92;59.07;102506.41;5205422;28;20029;-74
2022/08/10 09:34:33;;;;;;;32.17;5.40;;;;;;;32.38;56.36;102498.31;5204960;28;20482;-74
2022/08/10 09:37:15;;;;;;;10.43;3.85;;;;;;;32.37;56.02;102490.22;5205546;28;20427;-74
2022/08/10 09:40:10;;;;;;;5.25;3.83;;;;;;;32.18;53.57;102501.81;5205381;28;20036;-74
2022/08/10 09:42:51;;;;;;;10.38;4.13;;;;;;;32.15;55.22;102491.25;5205555;28;20036;-74
2022/08/10 09:45:33;;;;;;;13.65;4.15;;;;;;;32.44;54.77;102485.25;5204904;28;20032;-74
2022/08/10 09:48:40;;;;;;;5.82;3.22;;;;;;;32.36;54.00;102489.41;5204967;28;20025;-74
2022/08/10 09:51:30;;;;;;;8.30;3.33;;;;;;;31.75;52.16;102489.09;5205203;28;20033;-74
2022/08/10 09:54:14;;;;;;;10.48;3.75;;;;;;;31.76;53.59;102481.59;5204485;28;20026;-74
2022/08/10 09:56:55;;;;;;;4.70;4.03;;;;;;;31.49;53.14;102479.81;5194069;28;20025;-74
2022/08/10 09:59:32;;;;;;;12.63;3.88;;;;;;;31.74;55.12;102470.78;5204690;28;20312;-74
2022/08/10 10:02:26;;;;;;;10.45;3.60;;;;;;;31.80;52.23;102466.94;5203665;28;20029;-74
2022/08/10 10:04:58;;;;;;;8.90;3.60;;;;;;;31.69;51.58;102468.00;5196738;28;20036;-74
2022/08/10 10:07:29;;;;;;;11.82;3.45;;;;;;;31.70;52.31;102456.63;5204345;28;20037;-74
2022/08/10 10:10:18;;;;;;;10.15;3.30;;;;;;;31.61;51.08;102466.53;5204687;28;20033;-74
2022/08/10 10:13:10;;;;;;;5.25;2.90;;;;;;;31.82;52.68;102458.34;5204592;28;20108;-75
2022/08/10 10:16:15;;;;;;;5.95;3.22;;;;;;;32.04;51.48;102455.41;5191650;28;20540;-74
2022/08/10 10:19:08;;;;;;;8.15;3.20;;;;;;;32.01;48.93;102454.00;5204588;28;20438;-74
2022/08/10 10:21:55;;;;;;;8.00;3.45;;;;;;;31.60;47.86;102445.47;5204267;28;20033;-74
2022/08/10 10:24:38;;;;;;;4.28;2.60;;;;;;;31.68;51.06;102439.41;5203909;28;20103;-74
2022/08/10 10:27:28;;;;;;;8.40;2.95;;;;;;;31.74;49.09;102434.72;5192823;28;20026;-74
2022/08/10 10:30:16;;;;;;;7.20;2.83;;;;;;;31.91;48.64;102440.91;5204401;28;20372;-74
2022/08/10 10:33:22;;;;;;;11.70;2.90;;;;;;;32.08;48.35;102437.06;5204668;28;20017;-75
2022/08/10 10:35:54;;;;;;;;;;;;;;;31.75;47.41;102438.31;5204215;28;20041;-74
2022/08/10 10:38:31;;;;;;;9.10;3.13;;;;;;;31.58;47.95;102439.38;5204618;28;19909;-74
2022/08/10 10:41:21;;;;;;;8.25;2.50;;;;;;;31.63;48.32;102436.63;5204365;28;20025;-74
2022/08/10 10:44:01;;;;;;;6.15;2.70;;;;;;;31.77;49.66;102431.38;5202685;28;20044;-74
2022/08/10 10:47:01;;;;;;;9.10;3.72;;;;;;;31.83;48.37;102422.03;5191638;28;20480;-74
2022/08/10 10:50:06;;;;;;;5.32;2.50;;;;;;;31.61;45.71;102424.09;5203443;28;20033;-74
2022/08/10 10:52:55;;;;;;;7.28;2.70;;;;;;;31.41;45.48;102422.06;5203793;28;20455;-74
2022/08/10 10:55:44;;;;;;;6.22;2.55;;;;;;;31.56;46.68;102410.22;5203590;28;20033;-74
2022/08/10 10:58:51;;;;;;;6.85;3.20;;;;;;;31.73;46.14;102416.41;5202587;28;20509;-74
2022/08/10 11:01:21;;;;;;;8.35;3.05;;;;;;;31.86;45.54;102406.75;5204284;28;20036;-74
2022/08/10 11:04:29;;;;;;;5.88;2.55;;;;;;;32.14;45.51;102411.03;5194548;28;20029;-74
2022/08/10 11:07:33;;;;;;;6.47;2.65;;;;;;;31.84;43.21;102407.03;5203506;28;20458;-74
2022/08/10 11:10:09;;;;;;;5.80;2.55;;;;;;;31.50;43.84;102395.50;5202845;28;20025;-74
2022/08/10 11:13:02;;;;;;;7.30;2.58;;;;;;;31.73;44.08;102394.22;5192444;28;20106;-74
2022/08/10 11:15:49;;;;;;;5.50;2.70;;;;;;;31.75;44.31;102385.63;5198088;28;20025;-74
2022/08/10 11:18:35;;;;;;;6.18;2.58;;;;;;;31.88;43.17;102387.88;5203553;28;20275;-73
2022/08/10 11:21:15;;;;;;;8.30;3.15;;;;;;;32.01;42.83;102381.84;5203568;28;20399;-74
2022/08/10 11:24:07;;;;;;;3.78;2.67;;;;;;;32.23;42.49;102379.66;5203166;28;20035;-74
2022/08/10 11:27:00;;;;;;;6.15;2.72;;;;;;;32.33;42.64;102372.44;5203497;28;20422;-74
2022/08/10 11:29:37;;;;;;;7.68;2.65;;;;;;;32.17;40.57;102374.38;5203429;28;20025;-74
2022/08/10 11:32:16;;;;;;;6.28;2.83;;;;;;;31.95;40.44;102363.50;5203436;28;20064;-74
2022/08/10 11:35:06;;;;;;;5.50;2.83;;;;;;;31.87;41.47;102375.97;5188168;28;20033;-75
2022/08/10 11:38:10;;;;;;;9.52;2.60;;;;;;;32.00;40.11;102374.63;5203441;28;20029;-74
2022/08/10 11:41:01;;;;;;;4.63;2.45;;;;;;;32.07;41.85;102374.34;5203488;28;20033;-74
2022/08/10 11:43:38;;;;;;;6.35;2.60;;;;;;;32.25;40.88;102367.44;5192385;28;20036;-74
2022/08/10 11:46:46;;;;;;;5.55;2.55;;;;;;;32.63;40.86;102378.06;5200523;28;20372;-74
2022/08/10 11:49:25;;;;;;;4.00;2.45;;;;;;;32.48;41.71;102358.59;5201707;28;20022;-74
2022/08/10 11:52:03;;;;;;;9.00;2.65;;;;;;;32.81;42.00;102359.13;5202662;28;20064;-74
2022/08/10 11:54:49;;;;;;;7.07;2.78;;;;;;;33.04;40.49;102364.13;5202300;28;20060;-74
2022/08/10 11:57:27;;;;;;;3.88;2.50;;;;;;;32.94;39.87;102353.88;5202988;28;20017;-74
2022/08/10 11:59:57;;;;;;;9.13;2.90;;;;;;;33.15;40.28;102357.44;5203041;28;20032;-75
2022/08/10 12:02:45;;;;;;;8.02;2.72;;;;;;;33.08;38.28;102351.31;5201848;28;20026;-74
2022/08/10 12:05:20;;;;;;;9.75;2.90;;;;;;;33.05;38.65;102353.84;5196307;28;20056;-74
2022/08/10 12:07:53;;;;;;;10.07;2.92;;;;;;;33.06;38.74;102352.72;5202847;28;20116;-74
2022/08/10 12:10:25;;;;;;;8.60;2.20;;;;;;;32.73;38.78;102354.97;5202830;28;20029;-74